Terminal Aerodrome Forecast
Issued by NWS Lake Charles, LA

Home | Current Version | Previous Version | Text Only | Print | Product List | Glossary On
Versions: 1 2 3 4 5 6 7 8 9 10 11 12 13 14 15 16 17 18 19 20 21
000
FTUS44 KLCH 222100 AAC
TAFBPT
TAF AMD
KBPT 222106Z 2221/2318 11016G24KT P6SM SCT017 SCT025 OVC080
     FM222300 12012G18KT P6SM VCSH SCT005 SCT009 OVC017
      TEMPO 2223/2301 5SM -SHRA BKN005 OVC009
     FM230100 12014G22KT 3SM TSRA BR BKN007 OVC014CB
     FM231300 21012KT P6SM SCT019 SCT250=

USA.gov is the U.S. government's official web portal to all federal, state and local government web resources and services.